This is the latest recevied weather packets stored in our database for station/object KD0RIH. If no packets are shown the sender has not sent any weather packets the latest 10 day(s).
| Time | Temp. | Humidity | Pressure | Rain* | Wind** | Luminosity | Snow |
|---|---|---|---|---|---|---|---|
| 1777916913 | 27.22° C | 35% | 1002.2 hPa | 0 mm | - | 973 W/m² | - |
| 1777916610 | 27.22° C | 36% | 1002.3 hPa | 0 mm | - | 972 W/m² | - |
| 1777916307 | 26.67° C | 37% | 1002.3 hPa | 0 mm | - | 970 W/m² | - |
| 1777916003 | 26.67° C | 37% | 1002.4 hPa | 0 mm | - | 968 W/m² | - |
| 1777915700 | 26.67° C | 37% | 1002.3 hPa | 0 mm | - | 965 W/m² | - |
| 1777915397 | 26.67° C | 37% | 1002.5 hPa | 0 mm | - | 963 W/m² | - |
| 1777915093 | 25.56° C | 40% | 1002.5 hPa | 0 mm | - | 957 W/m² | - |
| 1777914790 | 25.56° C | 39% | 1002.5 hPa | 0 mm | - | 953 W/m² | - |
| 1777914487 | 26.11° C | 38% | 1002.7 hPa | 0 mm | - | 948 W/m² | - |
| 1777914184 | 26.11° C | 38% | 1002.7 hPa | 0 mm | - | 943 W/m² | - |
| 1777913880 | 25° C | 42% | 1002.7 hPa | 0 mm | - | 935 W/m² | - |
| 1777913577 | 25.56° C | 39% | 1002.7 hPa | 0 mm | - | 927 W/m² | - |
| 1777913272 | 25° C | 41% | 1002.7 hPa | 0 mm | - | 915 W/m² | - |
| 1777912970 | 25° C | 43% | 1002.8 hPa | 0 mm | - | 908 W/m² | - |
| 1777912666 | 25.56° C | 42% | 1002.9 hPa | 0 mm | - | 901 W/m² | - |
| 1777912362 | 25.56° C | 42% | 1002.8 hPa | 0 mm | - | 891 W/m² | - |
| 1777912059 | 25° C | 40% | 1002.8 hPa | 0 mm | - | 880 W/m² | - |
| 1777911755 | 24.44° C | 42% | 1002.7 hPa | 0 mm | - | 870 W/m² | - |
| 1777911452 | 24.44° C | 42% | 1003 hPa | 0 mm | - | 859 W/m² | - |
| 1777911148 | 25° C | 40% | 1002.8 hPa | 0 mm | - | 852 W/m² | - |
| 1777910846 | 24.44° C | 41% | 1002.7 hPa | 0 mm | - | 839 W/m² | - |
| 1777910542 | 23.89° C | 41% | 1003.1 hPa | 0 mm | - | 829 W/m² | - |
| 1777910240 | 23.89° C | 42% | 1003 hPa | 0 mm | - | 817 W/m² | - |
| 1777909937 | 23.89° C | 42% | 1002.8 hPa | 0 mm | - | 807 W/m² | - |
| 1777909633 | 23.89° C | 43% | 1002.9 hPa | 0 mm | - | 795 W/m² | - |
* Rain latest hour (hover to see other rain measurements)
** Current wind speed in m/s (hover to see current wind gust speed)